sensor_id;sensor_type;location;lat;lon;timestamp;pressure;altitude;pressure_sealevel;temperature;humidity
60240;BME280;46102;39.012;-7.064;2023-04-03T00:00:56;98958.06;;;15.01;29.37
60240;BME280;46102;39.012;-7.064;2023-04-03T00:02:57;98952.59;;;14.92;29.45
60240;BME280;46102;39.012;-7.064;2023-04-03T00:04:57;98953.75;;;14.91;29.59
60240;BME280;46102;39.012;-7.064;2023-04-03T00:06:58;98954.88;;;14.90;29.78
60240;BME280;46102;39.012;-7.064;2023-04-03T00:08:59;98947.75;;;14.89;29.76
60240;BME280;46102;39.012;-7.064;2023-04-03T00:11:00;98946.47;;;14.86;29.88
60240;BME280;46102;39.012;-7.064;2023-04-03T00:13:03;98938.38;;;14.81;29.90
60240;BME280;46102;39.012;-7.064;2023-04-03T00:15:04;98942.94;;;14.77;29.82
60240;BME280;46102;39.012;-7.064;2023-04-03T00:17:05;98942.81;;;14.73;29.88
60240;BME280;46102;39.012;-7.064;2023-04-03T00:19:06;98937.97;;;14.70;29.94
60240;BME280;46102;39.012;-7.064;2023-04-03T00:21:07;98940.38;;;14.72;29.98
60240;BME280;46102;39.012;-7.064;2023-04-03T00:23:08;98931.78;;;14.73;29.98
60240;BME280;46102;39.012;-7.064;2023-04-03T00:25:09;98932.91;;;14.72;29.89
60240;BME280;46102;39.012;-7.064;2023-04-03T00:27:10;98929.69;;;14.70;29.91
60240;BME280;46102;39.012;-7.064;2023-04-03T00:29:11;98932.31;;;14.67;30.01
60240;BME280;46102;39.012;-7.064;2023-04-03T00:31:15;98944.84;;;14.64;30.08
60240;BME280;46102;39.012;-7.064;2023-04-03T00:33:16;98931.50;;;14.66;30.03
60240;BME280;46102;39.012;-7.064;2023-04-03T00:35:18;98936.66;;;14.68;30.02
60240;BME280;46102;39.012;-7.064;2023-04-03T00:37:21;98929.75;;;14.62;29.98
60240;BME280;46102;39.012;-7.064;2023-04-03T00:39:21;98924.06;;;14.58;30.26
60240;BME280;46102;39.012;-7.064;2023-04-03T00:41:22;98926.69;;;14.54;30.38
60240;BME280;46102;39.012;-7.064;2023-04-03T00:43:24;98927.16;;;14.56;30.42
60240;BME280;46102;39.012;-7.064;2023-04-03T00:45:38;98919.25;;;14.55;30.47
60240;BME280;46102;39.012;-7.064;2023-04-03T00:47:40;98915.97;;;14.53;30.27
60240;BME280;46102;39.012;-7.064;2023-04-03T00:49:42;98917.31;;;14.47;30.19
60240;BME280;46102;39.012;-7.064;2023-04-03T00:51:44;98908.88;;;14.43;30.46
60240;BME280;46102;39.012;-7.064;2023-04-03T00:53:50;98921.22;;;14.46;30.38
60240;BME280;46102;39.012;-7.064;2023-04-03T00:55:54;98921.53;;;14.44;30.33
60240;BME280;46102;39.012;-7.064;2023-04-03T00:57:56;98918.31;;;14.42;30.38
60240;BME280;46102;39.012;-7.064;2023-04-03T01:00:03;98917.50;;;14.42;30.52
60240;BME280;46102;39.012;-7.064;2023-04-03T01:02:06;98916.63;;;14.50;30.16
60240;BME280;46102;39.012;-7.064;2023-04-03T01:04:26;98905.13;;;14.48;30.26
60240;BME280;46102;39.012;-7.064;2023-04-03T01:06:31;98899.94;;;14.46;30.33
60240;BME280;46102;39.012;-7.064;2023-04-03T01:08:39;98897.50;;;14.45;30.53
60240;BME280;46102;39.012;-7.064;2023-04-03T01:10:39;98897.81;;;14.43;30.57
60240;BME280;46102;39.012;-7.064;2023-04-03T01:12:42;98895.75;;;14.40;30.79
60240;BME280;46102;39.012;-7.064;2023-04-03T01:14:44;98891.06;;;14.32;30.84
60240;BME280;46102;39.012;-7.064;2023-04-03T01:16:53;98892.38;;;14.34;30.68
60240;BME280;46102;39.012;-7.064;2023-04-03T01:18:54;98890.47;;;14.26;30.89
60240;BME280;46102;39.012;-7.064;2023-04-03T01:25:09;98888.50;;;14.27;30.90
60240;BME280;46102;39.012;-7.064;2023-04-03T01:27:11;98891.44;;;14.30;30.69
60240;BME280;46102;39.012;-7.064;2023-04-03T01:29:12;98872.44;;;14.29;30.75
60240;BME280;46102;39.012;-7.064;2023-04-03T01:33:18;98871.06;;;14.14;31.18
60240;BME280;46102;39.012;-7.064;2023-04-03T01:35:21;98877.03;;;14.16;30.81
60240;BME280;46102;39.012;-7.064;2023-04-03T01:37:22;98870.44;;;14.08;31.06
60240;BME280;46102;39.012;-7.064;2023-04-03T01:39:22;98867.50;;;14.13;31.06
60240;BME280;46102;39.012;-7.064;2023-04-03T01:41:24;98869.78;;;14.11;30.68
60240;BME280;46102;39.012;-7.064;2023-04-03T01:43:29;98866.41;;;14.06;31.10
60240;BME280;46102;39.012;-7.064;2023-04-03T01:45:30;98862.50;;;14.07;31.09
60240;BME280;46102;39.012;-7.064;2023-04-03T01:47:31;98863.31;;;14.07;31.09
60240;BME280;46102;39.012;-7.064;2023-04-03T01:49:32;98853.09;;;14.08;31.03
60240;BME280;46102;39.012;-7.064;2023-04-03T01:51:33;98855.56;;;14.01;31.27
60240;BME280;46102;39.012;-7.064;2023-04-03T01:53:34;98855.22;;;14.02;31.01
60240;BME280;46102;39.012;-7.064;2023-04-03T01:55:35;98852.66;;;13.97;31.18
60240;BME280;46102;39.012;-7.064;2023-04-03T01:57:36;98853.34;;;13.94;31.65
60240;BME280;46102;39.012;-7.064;2023-04-03T01:59:37;98846.50;;;13.91;31.33
60240;BME280;46102;39.012;-7.064;2023-04-03T02:01:37;98850.63;;;13.85;31.41
60240;BME280;46102;39.012;-7.064;2023-04-03T02:03:38;98845.75;;;13.82;31.84
60240;BME280;46102;39.012;-7.064;2023-04-03T02:05:39;98845.75;;;13.82;31.74
60240;BME280;46102;39.012;-7.064;2023-04-03T02:07:40;98837.47;;;13.82;31.66
60240;BME280;46102;39.012;-7.064;2023-04-03T02:09:42;98841.22;;;13.78;32.13
60240;BME280;46102;39.012;-7.064;2023-04-03T02:11:43;98837.69;;;13.68;31.88
60240;BME280;46102;39.012;-7.064;2023-04-03T02:13:44;98836.56;;;13.69;31.94
60240;BME280;46102;39.012;-7.064;2023-04-03T02:15:45;98834.13;;;13.68;32.08
60240;BME280;46102;39.012;-7.064;2023-04-03T02:17:46;98824.44;;;13.62;31.98
60240;BME280;46102;39.012;-7.064;2023-04-03T02:19:48;98827.53;;;13.60;32.14
60240;BME280;46102;39.012;-7.064;2023-04-03T02:21:49;98830.59;;;13.59;32.14
60240;BME280;46102;39.012;-7.064;2023-04-03T02:23:50;98829.97;;;13.53;32.29
60240;BME280;46102;39.012;-7.064;2023-04-03T02:25:53;98823.47;;;13.58;32.30
60240;BME280;46102;39.012;-7.064;2023-04-03T02:27:53;98817.63;;;13.59;32.28
60240;BME280;46102;39.012;-7.064;2023-04-03T02:29:54;98815.06;;;13.54;32.40
60240;BME280;46102;39.012;-7.064;2023-04-03T02:31:55;98819.44;;;13.55;32.43
60240;BME280;46102;39.012;-7.064;2023-04-03T02:33:57;98816.66;;;13.55;32.17
60240;BME280;46102;39.012;-7.064;2023-04-03T02:35:58;98816.06;;;13.49;32.33
60240;BME280;46102;39.012;-7.064;2023-04-03T02:38:00;98815.91;;;13.46;32.27
60240;BME280;46102;39.012;-7.064;2023-04-03T02:40:01;98820.28;;;13.47;32.53
60240;BME280;46102;39.012;-7.064;2023-04-03T02:42:02;98818.81;;;13.49;32.38
60240;BME280;46102;39.012;-7.064;2023-04-03T02:44:05;98815.25;;;13.49;32.51
60240;BME280;46102;39.012;-7.064;2023-04-03T02:46:07;98822.06;;;13.43;32.58
60240;BME280;46102;39.012;-7.064;2023-04-03T02:48:07;98824.50;;;13.44;32.73
60240;BME280;46102;39.012;-7.064;2023-04-03T02:50:09;98824.69;;;13.30;33.26
60240;BME280;46102;39.012;-7.064;2023-04-03T02:52:10;98811.25;;;13.20;33.82
60240;BME280;46102;39.012;-7.064;2023-04-03T02:54:11;98819.22;;;13.13;33.85
60240;BME280;46102;39.012;-7.064;2023-04-03T02:56:15;98815.81;;;13.07;33.87
60240;BME280;46102;39.012;-7.064;2023-04-03T02:58:17;98807.25;;;13.00;34.17
60240;BME280;46102;39.012;-7.064;2023-04-03T03:00:18;98813.75;;;12.96;34.44
60240;BME280;46102;39.012;-7.064;2023-04-03T03:02:19;98799.97;;;12.87;34.36
60240;BME280;46102;39.012;-7.064;2023-04-03T03:04:20;98806.63;;;12.77;34.63
60240;BME280;46102;39.012;-7.064;2023-04-03T03:06:21;98796.75;;;12.76;34.80
60240;BME280;46102;39.012;-7.064;2023-04-03T03:08:22;98800.00;;;12.69;34.75
60240;BME280;46102;39.012;-7.064;2023-04-03T03:10:23;98802.75;;;12.69;34.89
60240;BME280;46102;39.012;-7.064;2023-04-03T03:12:24;98802.75;;;12.61;35.43
60240;BME280;46102;39.012;-7.064;2023-04-03T03:14:25;98792.56;;;12.53;35.53
60240;BME280;46102;39.012;-7.064;2023-04-03T03:16:26;98794.34;;;12.48;35.24
60240;BME280;46102;39.012;-7.064;2023-04-03T03:18:27;98791.91;;;12.47;35.55
60240;BME280;46102;39.012;-7.064;2023-04-03T03:20:28;98787.72;;;12.41;35.65
60240;BME280;46102;39.012;-7.064;2023-04-03T03:22:28;98787.56;;;12.46;35.26
60240;BME280;46102;39.012;-7.064;2023-04-03T03:24:29;98782.38;;;12.44;35.32
60240;BME280;46102;39.012;-7.064;2023-04-03T03:26:30;98785.91;;;12.45;35.61
60240;BME280;46102;39.012;-7.064;2023-04-03T03:28:31;98771.34;;;12.53;35.25
60240;BME280;46102;39.012;-7.064;2023-04-03T03:30:32;98768.59;;;12.62;34.77
60240;BME280;46102;39.012;-7.064;2023-04-03T03:32:33;98769.09;;;12.64;35.00
60240;BME280;46102;39.012;-7.064;2023-04-03T03:34:35;98767.31;;;12.68;35.07
60240;BME280;46102;39.012;-7.064;2023-04-03T03:36:36;98758.22;;;12.67;34.53
60240;BME280;46102;39.012;-7.064;2023-04-03T03:38:37;98760.84;;;12.64;34.92
60240;BME280;46102;39.012;-7.064;2023-04-03T03:40:38;98758.06;;;12.64;34.91
60240;BME280;46102;39.012;-7.064;2023-04-03T03:42:40;98758.22;;;12.67;34.93
60240;BME280;46102;39.012;-7.064;2023-04-03T03:44:41;98770.69;;;12.65;34.83
60240;BME280;46102;39.012;-7.064;2023-04-03T03:46:42;98765.84;;;12.62;34.81
60240;BME280;46102;39.012;-7.064;2023-04-03T03:48:43;98762.63;;;12.60;34.84
60240;BME280;46102;39.012;-7.064;2023-04-03T03:50:43;98764.38;;;12.64;34.88
60240;BME280;46102;39.012;-7.064;2023-04-03T03:52:45;98770.06;;;12.59;34.81
60240;BME280;46102;39.012;-7.064;2023-04-03T03:54:46;98763.28;;;12.57;35.15
60240;BME280;46102;39.012;-7.064;2023-04-03T03:56:47;98762.94;;;12.49;35.31
60240;BME280;46102;39.012;-7.064;2023-04-03T03:58:48;98757.59;;;12.53;35.06
60240;BME280;46102;39.012;-7.064;2023-04-03T04:00:50;98756.94;;;12.56;35.27
60240;BME280;46102;39.012;-7.064;2023-04-03T04:02:51;98756.13;;;12.56;34.83
60240;BME280;46102;39.012;-7.064;2023-04-03T04:04:55;98758.88;;;12.56;35.01
60240;BME280;46102;39.012;-7.064;2023-04-03T04:06:56;98755.16;;;12.52;35.05
60240;BME280;46102;39.012;-7.064;2023-04-03T04:08:57;98763.75;;;12.50;35.01
60240;BME280;46102;39.012;-7.064;2023-04-03T04:10:59;98756.63;;;12.40;35.45
60240;BME280;46102;39.012;-7.064;2023-04-03T04:13:00;98753.88;;;12.40;35.49
60240;BME280;46102;39.012;-7.064;2023-04-03T04:15:03;98746.28;;;12.37;35.50
60240;BME280;46102;39.012;-7.064;2023-04-03T04:17:04;98744.31;;;12.38;35.61
60240;BME280;46102;39.012;-7.064;2023-04-03T04:19:06;98740.78;;;12.37;35.09
60240;BME280;46102;39.012;-7.064;2023-04-03T04:21:06;98739.81;;;12.42;35.22
60240;BME280;46102;39.012;-7.064;2023-04-03T04:23:07;98735.59;;;12.36;35.68
60240;BME280;46102;39.012;-7.064;2023-04-03T04:25:10;98737.22;;;12.37;35.60
60240;BME280;46102;39.012;-7.064;2023-04-03T04:27:12;98735.59;;;12.36;35.54
60240;BME280;46102;39.012;-7.064;2023-04-03T04:29:14;98737.41;;;12.32;35.55
60240;BME280;46102;39.012;-7.064;2023-04-03T04:31:15;98738.19;;;12.32;35.57
60240;BME280;46102;39.012;-7.064;2023-04-03T04:33:16;98735.94;;;12.25;35.42
60240;BME280;46102;39.012;-7.064;2023-04-03T04:35:18;98727.34;;;12.27;35.87
60240;BME280;46102;39.012;-7.064;2023-04-03T04:37:21;98727.69;;;12.25;35.56
60240;BME280;46102;39.012;-7.064;2023-04-03T04:39:22;98728.66;;;12.21;35.75
60240;BME280;46102;39.012;-7.064;2023-04-03T04:41:23;98738.19;;;12.23;35.62
60240;BME280;46102;39.012;-7.064;2023-04-03T04:43:25;98733.31;;;12.20;35.83
60240;BME280;46102;39.012;-7.064;2023-04-03T04:45:28;98733.00;;;12.13;35.78
60240;BME280;46102;39.012;-7.064;2023-04-03T04:47:29;98732.50;;;12.11;36.13
60240;BME280;46102;39.012;-7.064;2023-04-03T04:49:30;98729.94;;;12.06;36.12
60240;BME280;46102;39.012;-7.064;2023-04-03T04:51:31;98737.38;;;12.05;36.07
60240;BME280;46102;39.012;-7.064;2023-04-03T04:53:32;98737.69;;;12.04;36.04
60240;BME280;46102;39.012;-7.064;2023-04-03T04:55:33;98739.47;;;12.08;35.96
60240;BME280;46102;39.012;-7.064;2023-04-03T04:57:35;98737.53;;;12.09;35.96
60240;BME280;46102;39.012;-7.064;2023-04-03T04:59:37;98724.44;;;12.06;35.70
60240;BME280;46102;39.012;-7.064;2023-04-03T05:01:41;98727.34;;;12.10;35.82
60240;BME280;46102;39.012;-7.064;2023-04-03T05:03:46;98718.44;;;12.13;35.38
60240;BME280;46102;39.012;-7.064;2023-04-03T05:05:48;98716.84;;;12.12;35.33
60240;BME280;46102;39.012;-7.064;2023-04-03T05:07:49;98722.84;;;12.14;35.50
60240;BME280;46102;39.012;-7.064;2023-04-03T05:09:50;98718.63;;;12.16;35.35
60240;BME280;46102;39.012;-7.064;2023-04-03T05:11:52;98723.63;;;12.14;35.45
60240;BME280;46102;39.012;-7.064;2023-04-03T05:13:56;98728.66;;;12.12;35.42
60240;BME280;46102;39.012;-7.064;2023-04-03T05:16:01;98728.00;;;12.15;35.66
60240;BME280;46102;39.012;-7.064;2023-04-03T05:18:02;98727.84;;;12.12;35.89
60240;BME280;46102;39.012;-7.064;2023-04-03T05:20:04;98724.59;;;12.10;35.78
60240;BME280;46102;39.012;-7.064;2023-04-03T05:22:05;98726.38;;;12.05;36.02
60240;BME280;46102;39.012;-7.064;2023-04-03T05:24:06;98727.50;;;12.04;35.91
60240;BME280;46102;39.012;-7.064;2023-04-03T05:26:12;98723.94;;;12.04;35.66
60240;BME280;46102;39.012;-7.064;2023-04-03T05:28:13;98733.34;;;12.03;36.06
60240;BME280;46102;39.012;-7.064;2023-04-03T05:30:15;98736.22;;;11.98;35.98
60240;BME280;46102;39.012;-7.064;2023-04-03T05:32:16;98734.31;;;11.98;35.87
60240;BME280;46102;39.012;-7.064;2023-04-03T05:34:19;98726.06;;;11.98;36.09
60240;BME280;46102;39.012;-7.064;2023-04-03T05:36:22;98738.34;;;12.01;35.87
60240;BME280;46102;39.012;-7.064;2023-04-03T05:38:29;98733.66;;;12.01;36.04
60240;BME280;46102;39.012;-7.064;2023-04-03T05:40:30;98738.34;;;11.92;35.94
60240;BME280;46102;39.012;-7.064;2023-04-03T05:42:31;98738.50;;;11.96;36.20
60240;BME280;46102;39.012;-7.064;2023-04-03T05:44:33;98742.88;;;11.97;36.00
60240;BME280;46102;39.012;-7.064;2023-04-03T05:46:34;98747.38;;;11.93;36.27
60240;BME280;46102;39.012;-7.064;2023-04-03T05:48:39;98737.34;;;11.88;36.24
60240;BME280;46102;39.012;-7.064;2023-04-03T05:50:41;98737.47;;;11.83;36.63
60240;BME280;46102;39.012;-7.064;2023-04-03T05:52:48;98738.47;;;11.87;36.37
60240;BME280;46102;39.012;-7.064;2023-04-03T05:54:51;98733.75;;;11.79;36.46
60240;BME280;46102;39.012;-7.064;2023-04-03T05:56:57;98734.91;;;11.78;36.63
60240;BME280;46102;39.012;-7.064;2023-04-03T05:58:59;98730.03;;;11.75;36.67
60240;BME280;46102;39.012;-7.064;2023-04-03T06:01:00;98736.97;;;11.72;36.62
60240;BME280;46102;39.012;-7.064;2023-04-03T06:03:02;98740.53;;;11.73;36.92
60240;BME280;46102;39.012;-7.064;2023-04-03T06:05:03;98739.06;;;11.75;36.76
60240;BME280;46102;39.012;-7.064;2023-04-03T06:07:04;98742.97;;;11.74;36.57
60240;BME280;46102;39.012;-7.064;2023-04-03T06:09:05;98742.66;;;11.76;36.97
60240;BME280;46102;39.012;-7.064;2023-04-03T06:11:07;98755.72;;;11.70;37.08
60240;BME280;46102;39.012;-7.064;2023-04-03T06:13:09;98749.22;;;11.66;37.07
60240;BME280;46102;39.012;-7.064;2023-04-03T06:15:10;98752.81;;;11.66;37.09
60240;BME280;46102;39.012;-7.064;2023-04-03T06:17:10;98747.16;;;11.72;37.12
60240;BME280;46102;39.012;-7.064;2023-04-03T06:19:12;98750.41;;;11.74;36.92
60240;BME280;46102;39.012;-7.064;2023-04-03T06:21:18;98746.84;;;11.73;36.97
60240;BME280;46102;39.012;-7.064;2023-04-03T06:23:19;98759.25;;;11.71;36.88
60240;BME280;46102;39.012;-7.064;2023-04-03T06:25:20;98759.13;;;11.76;36.70
60240;BME280;46102;39.012;-7.064;2023-04-03T06:27:21;98753.94;;;11.74;36.63
60240;BME280;46102;39.012;-7.064;2023-04-03T06:29:22;98762.38;;;11.78;36.60
60240;BME280;46102;39.012;-7.064;2023-04-03T06:31:23;98765.63;;;11.80;36.62
60240;BME280;46102;39.012;-7.064;2023-04-03T06:33:24;98760.13;;;11.80;36.74
60240;BME280;46102;39.012;-7.064;2023-04-03T06:35:25;98758.66;;;11.82;36.74
60240;BME280;46102;39.012;-7.064;2023-04-03T06:37:27;98763.50;;;11.85;36.79
60240;BME280;46102;39.012;-7.064;2023-04-03T06:39:29;98758.72;;;11.91;36.51
60240;BME280;46102;39.012;-7.064;2023-04-03T06:41:30;98762.28;;;12.00;36.40
60240;BME280;46102;39.012;-7.064;2023-04-03T06:43:30;98760.50;;;12.04;36.22
60240;BME280;46102;39.012;-7.064;2023-04-03T06:45:31;98757.13;;;12.07;36.27
60240;BME280;46102;39.012;-7.064;2023-04-03T06:47:32;98773.44;;;12.13;36.19
60240;BME280;46102;39.012;-7.064;2023-04-03T06:49:33;98774.59;;;12.12;36.25
60240;BME280;46102;39.012;-7.064;2023-04-03T06:51:35;98778.28;;;12.16;36.54
60240;BME280;46102;39.012;-7.064;2023-04-03T06:53:36;98782.81;;;12.20;36.44
60240;BME280;46102;39.012;-7.064;2023-04-03T06:55:36;98774.91;;;12.19;36.25
60240;BME280;46102;39.012;-7.064;2023-04-03T06:57:37;98778.16;;;12.21;36.25
60240;BME280;46102;39.012;-7.064;2023-04-03T06:59:38;98784.63;;;12.25;36.41
60240;BME280;46102;39.012;-7.064;2023-04-03T07:01:39;98775.56;;;12.33;36.38
60240;BME280;46102;39.012;-7.064;2023-04-03T07:03:41;98771.34;;;12.44;36.55
60240;BME280;46102;39.012;-7.064;2023-04-03T07:05:41;98772.66;;;12.56;35.78
60240;BME280;46102;39.012;-7.064;2023-04-03T07:07:45;98777.97;;;12.69;35.78
60240;BME280;46102;39.012;-7.064;2023-04-03T07:09:46;98781.03;;;12.85;35.71
60240;BME280;46102;39.012;-7.064;2023-04-03T07:11:48;98780.50;;;13.01;35.50
60240;BME280;46102;39.012;-7.064;2023-04-03T07:13:49;98774.66;;;13.20;35.47
60240;BME280;46102;39.012;-7.064;2023-04-03T07:15:50;98774.59;;;13.37;35.66
60240;BME280;46102;39.012;-7.064;2023-04-03T07:17:51;98774.69;;;13.58;35.49
60240;BME280;46102;39.012;-7.064;2023-04-03T07:19:52;98765.97;;;13.77;35.46
60240;BME280;46102;39.012;-7.064;2023-04-03T07:21:53;98772.66;;;13.97;34.93
60240;BME280;46102;39.012;-7.064;2023-04-03T07:23:54;98765.56;;;14.17;34.53
60240;BME280;46102;39.012;-7.064;2023-04-03T07:25:55;98764.28;;;14.35;34.16
60240;BME280;46102;39.012;-7.064;2023-04-03T07:27:56;98761.13;;;14.46;34.26
60240;BME280;46102;39.012;-7.064;2023-04-03T07:29:58;98763.41;;;14.65;34.08
60240;BME280;46102;39.012;-7.064;2023-04-03T07:31:58;98760.81;;;14.81;33.93
60240;BME280;46102;39.012;-7.064;2023-04-03T07:33:59;98759.72;;;14.94;33.67
60240;BME280;46102;39.012;-7.064;2023-04-03T07:36:01;98752.94;;;15.04;33.64
60240;BME280;46102;39.012;-7.064;2023-04-03T07:38:02;98762.06;;;15.16;33.65
60240;BME280;46102;39.012;-7.064;2023-04-03T07:40:03;98761.41;;;15.32;33.58
60240;BME280;46102;39.012;-7.064;2023-04-03T07:42:04;98759.91;;;15.47;33.60
60240;BME280;46102;39.012;-7.064;2023-04-03T07:44:05;98764.06;;;15.53;33.62
60240;BME280;46102;39.012;-7.064;2023-04-03T07:46:06;98763.72;;;15.67;33.54
60240;BME280;46102;39.012;-7.064;2023-04-03T07:48:07;98761.09;;;15.82;33.44
60240;BME280;46102;39.012;-7.064;2023-04-03T07:50:08;98760.97;;;15.91;33.07
60240;BME280;46102;39.012;-7.064;2023-04-03T07:52:09;98766.28;;;15.96;32.90
60240;BME280;46102;39.012;-7.064;2023-04-03T07:54:10;98758.28;;;16.07;32.35
60240;BME280;46102;39.012;-7.064;2023-04-03T07:56:11;98754.81;;;16.22;32.19
60240;BME280;46102;39.012;-7.064;2023-04-03T07:58:14;98755.34;;;16.40;31.55
60240;BME280;46102;39.012;-7.064;2023-04-03T08:00:15;98750.47;;;16.50;31.29
60240;BME280;46102;39.012;-7.064;2023-04-03T08:02:17;98754.28;;;16.45;31.29
60240;BME280;46102;39.012;-7.064;2023-04-03T08:04:19;98760.16;;;16.43;31.60
60240;BME280;46102;39.012;-7.064;2023-04-03T08:06:20;98764.00;;;16.67;31.66
60240;BME280;46102;39.012;-7.064;2023-04-03T08:08:22;98753.34;;;16.81;31.08
60240;BME280;46102;39.012;-7.064;2023-04-03T08:10:23;98756.81;;;16.78;30.94
60240;BME280;46102;39.012;-7.064;2023-04-03T08:12:24;98743.75;;;16.79;30.69
60240;BME280;46102;39.012;-7.064;2023-04-03T08:14:25;98748.44;;;16.91;30.53
60240;BME280;46102;39.012;-7.064;2023-04-03T08:16:26;98740.69;;;16.96;30.83
60240;BME280;46102;39.012;-7.064;2023-04-03T08:18:27;98744.41;;;17.16;30.47
60240;BME280;46102;39.012;-7.064;2023-04-03T08:20:29;98739.03;;;17.39;30.02
60240;BME280;46102;39.012;-7.064;2023-04-03T08:22:30;98736.97;;;17.52;29.91
60240;BME280;46102;39.012;-7.064;2023-04-03T08:24:32;98742.75;;;17.63;29.12
60240;BME280;46102;39.012;-7.064;2023-04-03T08:26:33;98743.22;;;17.65;29.42
60240;BME280;46102;39.012;-7.064;2023-04-03T08:28:33;98733.25;;;17.80;28.79
60240;BME280;46102;39.012;-7.064;2023-04-03T08:30:34;98736.69;;;17.89;28.57
60240;BME280;46102;39.012;-7.064;2023-04-03T08:32:35;98733.91;;;17.73;28.78
60240;BME280;46102;39.012;-7.064;2023-04-03T08:34:36;98729.97;;;17.90;28.69
60240;BME280;46102;39.012;-7.064;2023-04-03T08:36:39;98726.56;;;18.16;28.47
60240;BME280;46102;39.012;-7.064;2023-04-03T08:38:40;98731.31;;;18.16;27.35
60240;BME280;46102;39.012;-7.064;2023-04-03T08:40:41;98726.38;;;18.25;27.77
60240;BME280;46102;39.012;-7.064;2023-04-03T08:45:11;98732.56;;;18.18;27.59
60240;BME280;46102;39.012;-7.064;2023-04-03T08:47:38;98715.75;;;18.30;27.59
60240;BME280;46102;39.012;-7.064;2023-04-03T08:49:57;98724.09;;;18.30;27.82
60240;BME280;46102;39.012;-7.064;2023-04-03T08:52:10;98719.06;;;18.36;27.45
60240;BME280;46102;39.012;-7.064;2023-04-03T08:54:22;98709.41;;;18.49;27.17
60240;BME280;46102;39.012;-7.064;2023-04-03T08:56:25;98719.78;;;18.52;26.98
60240;BME280;46102;39.012;-7.064;2023-04-03T08:58:29;98717.09;;;18.56;27.67
60240;BME280;46102;39.012;-7.064;2023-04-03T09:00:41;98717.09;;;18.76;27.88
60240;BME280;46102;39.012;-7.064;2023-04-03T09:02:50;98716.13;;;18.87;27.93
60240;BME280;46102;39.012;-7.064;2023-04-03T09:04:52;98717.19;;;19.02;27.58
60240;BME280;46102;39.012;-7.064;2023-04-03T09:06:57;98716.94;;;19.11;27.21
60240;BME280;46102;39.012;-7.064;2023-04-03T09:11:05;98721.94;;;19.25;27.45
60240;BME280;46102;39.012;-7.064;2023-04-03T09:13:26;98719.19;;;19.48;27.40
60240;BME280;46102;39.012;-7.064;2023-04-03T09:15:31;98710.59;;;19.60;27.52
60240;BME280;46102;39.012;-7.064;2023-04-03T09:17:41;98710.38;;;19.69;27.42
60240;BME280;46102;39.012;-7.064;2023-04-03T09:22:22;98711.81;;;19.86;27.40
60240;BME280;46102;39.012;-7.064;2023-04-03T09:24:24;98711.13;;;19.92;27.23
60240;BME280;46102;39.012;-7.064;2023-04-03T09:26:31;98720.59;;;19.88;26.83
60240;BME280;46102;39.012;-7.064;2023-04-03T09:28:39;98718.31;;;19.93;26.80
60240;BME280;46102;39.012;-7.064;2023-04-03T09:30:40;98703.63;;;19.96;26.95
60240;BME280;46102;39.012;-7.064;2023-04-03T09:32:45;98703.94;;;19.91;27.62
60240;BME280;46102;39.012;-7.064;2023-04-03T09:34:47;98688.72;;;20.12;27.26
60240;BME280;46102;39.012;-7.064;2023-04-03T09:36:51;98693.88;;;20.44;27.05
60240;BME280;46102;39.012;-7.064;2023-04-03T09:39:17;98698.19;;;20.68;25.56
60240;BME280;46102;39.012;-7.064;2023-04-03T09:41:18;98691.47;;;20.72;25.74
60240;BME280;46102;39.012;-7.064;2023-04-03T09:43:26;98697.53;;;20.82;25.73
60240;BME280;46102;39.012;-7.064;2023-04-03T09:45:30;98684.19;;;21.02;25.18
60240;BME280;46102;39.012;-7.064;2023-04-03T09:47:34;98689.56;;;21.25;24.10
60240;BME280;46102;39.012;-7.064;2023-04-03T09:49:36;98700.50;;;21.40;23.82
60240;BME280;46102;39.012;-7.064;2023-04-03T09:51:37;98680.25;;;21.54;23.81
60240;BME280;46102;39.012;-7.064;2023-04-03T09:53:43;98683.13;;;21.65;24.09
60240;BME280;46102;39.012;-7.064;2023-04-03T09:55:45;98688.34;;;21.67;24.23
60240;BME280;46102;39.012;-7.064;2023-04-03T09:57:46;98685.25;;;21.82;23.63
60240;BME280;46102;39.012;-7.064;2023-04-03T10:00:00;98677.28;;;21.85;24.46
60240;BME280;46102;39.012;-7.064;2023-04-03T10:02:22;98662.53;;;21.88;24.42
60240;BME280;46102;39.012;-7.064;2023-04-03T10:04:38;98664.97;;;21.93;24.95
60240;BME280;46102;39.012;-7.064;2023-04-03T10:06:42;98666.16;;;21.92;24.55
60240;BME280;46102;39.012;-7.064;2023-04-03T10:09:02;98665.25;;;21.73;24.46
60240;BME280;46102;39.012;-7.064;2023-04-03T10:11:15;98662.13;;;21.86;24.26
60240;BME280;46102;39.012;-7.064;2023-04-03T10:13:20;98654.59;;;21.97;23.75
60240;BME280;46102;39.012;-7.064;2023-04-03T10:15:21;98658.25;;;22.08;22.65
60240;BME280;46102;39.012;-7.064;2023-04-03T10:17:50;98655.06;;;22.13;22.56
60240;BME280;46102;39.012;-7.064;2023-04-03T10:24:52;98655.00;;;23.15;21.60
60240;BME280;46102;39.012;-7.064;2023-04-03T10:27:02;98655.75;;;22.91;21.49
60240;BME280;46102;39.012;-7.064;2023-04-03T10:31:59;98642.03;;;22.32;22.39
60240;BME280;46102;39.012;-7.064;2023-04-03T10:34:23;98630.72;;;22.10;22.71
60240;BME280;46102;39.012;-7.064;2023-04-03T10:38:51;98627.25;;;22.31;22.11
60240;BME280;46102;39.012;-7.064;2023-04-03T10:41:02;98639.28;;;22.46;22.13
60240;BME280;46102;39.012;-7.064;2023-04-03T10:43:28;98629.38;;;22.88;21.47
60240;BME280;46102;39.012;-7.064;2023-04-03T10:52:29;98636.56;;;23.75;20.44
60240;BME280;46102;39.012;-7.064;2023-04-03T10:54:38;98631.72;;;23.86;20.61
60240;BME280;46102;39.012;-7.064;2023-04-03T10:56:42;98628.84;;;24.15;20.41
60240;BME280;46102;39.012;-7.064;2023-04-03T10:58:48;98626.03;;;24.19;20.07
60240;BME280;46102;39.012;-7.064;2023-04-03T11:00:51;98620.91;;;23.99;20.42
60240;BME280;46102;39.012;-7.064;2023-04-03T11:02:58;98623.63;;;24.21;20.54
60240;BME280;46102;39.012;-7.064;2023-04-03T11:05:18;98623.16;;;24.37;20.24
60240;BME280;46102;39.012;-7.064;2023-04-03T11:07:28;98616.72;;;24.40;19.29
60240;BME280;46102;39.012;-7.064;2023-04-03T11:09:34;98604.38;;;24.30;19.17
60240;BME280;46102;39.012;-7.064;2023-04-03T11:11:39;98604.84;;;24.14;19.46
60240;BME280;46102;39.012;-7.064;2023-04-03T11:16:23;98601.91;;;24.36;19.87